Time;durP1;ratioP1;P1;durP2;ratioP2;P2;SDS_P1;SDS_P2;PMS_P1;PMS_P2;Temp;Humidity;BMP_temperature;BMP_pressure;BME280_temperature;BME280_humidity;BME280_pressure;Samples;Min_cycle;Max_cycle;Signal;HPM_P1;HPM_P2
2022/09/09 00:00:27;;;;;;;1.00;0.50;;;;;;;;;;5048363;28;20694;-17
2022/09/09 00:02:56;;;;;;;1.65;0.43;;;;;;;;;;5047908;28;20272;-18
2022/09/09 00:05:27;;;;;;;2.35;0.52;;;;;;;;;;5047075;28;20844;-17
2022/09/09 00:07:55;;;;;;;1.60;0.82;;;;;;;;;;5045804;28;20242;-16
2022/09/09 00:10:23;;;;;;;2.08;0.50;;;;;;;;;;5047909;28;20234;-17
2022/09/09 00:12:55;;;;;;;1.25;0.60;;;;;;;;;;5047573;28;20716;-17
2022/09/09 00:15:23;;;;;;;0.90;0.43;;;;;;;;;;5051776;28;20234;-17
2022/09/09 00:17:54;;;;;;;3.50;0.70;;;;;;;;;;5053450;28;20475;-17
2022/09/09 00:20:23;;;;;;;3.92;1.00;;;;;;;;;;5058383;28;20323;-17
2022/09/09 00:22:53;;;;;;;5.60;0.95;;;;;;;;;;5053998;28;20323;-17
2022/09/09 00:25:23;;;;;;;5.72;1.27;;;;;;;;;;5053492;28;20276;-16
2022/09/09 00:27:51;;;;;;;7.30;1.25;;;;;;;;;;5059885;28;20288;-16
2022/09/09 00:30:20;;;;;;;8.75;1.02;;;;;;;;;;5058154;28;20316;-16
2022/09/09 00:32:47;;;;;;;8.10;1.17;;;;;;;;;;5051613;28;20227;-16
2022/09/09 00:35:17;;;;;;;3.85;0.98;;;;;;;;;;5050867;28;20226;-17
2022/09/09 00:37:45;;;;;;;3.47;0.80;;;;;;;;;;5049770;28;20298;-16
2022/09/09 00:40:18;;;;;;;5.40;0.93;;;;;;;;;;5049307;28;20250;-16
2022/09/09 00:42:45;;;;;;;8.75;1.20;;;;;;;;;;5050113;28;20284;-16
2022/09/09 00:45:19;;;;;;;10.55;0.95;;;;;;;;;;5051081;28;20230;-16
2022/09/09 00:47:47;;;;;;;4.72;0.80;;;;;;;;;;5051452;28;20234;-16
2022/09/09 00:50:24;;;;;;;2.22;0.80;;;;;;;;;;5050743;28;20896;-16
2022/09/09 00:52:53;;;;;;;3.60;1.15;;;;;;;;;;5050549;28;20226;-16
2022/09/09 00:55:22;;;;;;;5.05;0.90;;;;;;;;;;5051545;28;20234;-16
2022/09/09 00:57:49;;;;;;;6.25;1.50;;;;;;;;;;5051709;28;21023;-16
2022/09/09 01:00:18;;;;;;;3.15;0.70;;;;;;;;;;5050647;28;20238;-16
2022/09/09 01:02:47;;;;;;;4.68;0.73;;;;;;;;;;5050616;28;21059;-16
2022/09/09 01:05:17;;;;;;;9.77;0.95;;;;;;;;;;5050666;28;20228;-16
2022/09/09 01:07:47;;;;;;;1.80;0.80;;;;;;;;;;5045286;28;20242;-16
2022/09/09 01:10:17;;;;;;;5.78;0.85;;;;;;;;;;5049674;28;20670;-16
2022/09/09 01:12:44;;;;;;;2.67;0.80;;;;;;;;;;5049999;28;20264;-16
2022/09/09 01:15:12;;;;;;;4.05;0.95;;;;;;;;;;5055167;28;20233;-16
2022/09/09 01:17:45;;;;;;;2.33;0.73;;;;;;;;;;5049840;28;20296;-16
2022/09/09 01:20:15;;;;;;;1.38;0.43;;;;;;;;;;5049764;28;20326;-16
2022/09/09 01:22:45;;;;;;;2.33;0.73;;;;;;;;;;5050372;28;20296;-16
2022/09/09 01:25:18;;;;;;;1.48;0.55;;;;;;;;;;5050244;28;20701;-17
2022/09/09 01:27:47;;;;;;;2.92;0.68;;;;;;;;;;5051053;28;21102;-16
2022/09/09 01:30:14;;;;;;;1.20;0.70;;;;;;;;;;5049836;28;20276;-16
2022/09/09 01:32:43;;;;;;;1.50;0.80;;;;;;;;;;5050310;28;20257;-16
2022/09/09 01:35:11;;;;;;;2.15;1.00;;;;;;;;;;5050217;28;20234;-16
2022/09/09 01:37:38;;;;;;;6.93;0.93;;;;;;;;;;5050687;28;20225;-16
2022/09/09 01:40:06;;;;;;;3.88;0.77;;;;;;;;;;5051310;28;21255;-16
2022/09/09 01:42:34;;;;;;;2.10;0.80;;;;;;;;;;5049898;28;20232;-16
2022/09/09 01:45:02;;;;;;;0.85;0.60;;;;;;;;;;5050682;28;20755;-16
2022/09/09 01:47:30;;;;;;;1.90;0.50;;;;;;;;;;5030875;28;20223;-16
2022/09/09 01:49:57;;;;;;;1.33;0.65;;;;;;;;;;5036438;28;20775;-16
2022/09/09 01:52:24;;;;;;;3.28;0.65;;;;;;;;;;5049665;28;20234;-16
2022/09/09 01:54:52;;;;;;;3.70;0.80;;;;;;;;;;5050383;28;20272;-17
2022/09/09 01:57:19;;;;;;;1.48;0.80;;;;;;;;;;5050565;28;20226;-16
2022/09/09 01:59:49;;;;;;;3.03;0.60;;;;;;;;;;5049964;28;20265;-16
2022/09/09 02:02:19;;;;;;;1.90;0.68;;;;;;;;;;5051085;28;20705;-16
2022/09/09 02:04:47;;;;;;;3.08;0.70;;;;;;;;;;5053441;28;20265;-16
2022/09/09 02:07:19;;;;;;;2.70;0.50;;;;;;;;;;5053917;28;20296;-16
2022/09/09 02:09:47;;;;;;;1.80;0.63;;;;;;;;;;5053387;28;20237;-16
2022/09/09 02:12:14;;;;;;;3.22;0.50;;;;;;;;;;5053851;28;20226;-15
2022/09/09 02:14:42;;;;;;;2.55;0.82;;;;;;;;;;5053342;28;20238;-15
2022/09/09 02:17:10;;;;;;;4.75;0.70;;;;;;;;;;5053329;28;20234;-15
2022/09/09 02:19:40;;;;;;;2.42;0.93;;;;;;;;;;5053575;28;20685;-15
2022/09/09 02:22:07;;;;;;;4.22;0.70;;;;;;;;;;5086484;22;20245;-15
2022/09/09 02:24:35;;;;;;;2.88;0.63;;;;;;;;;;5085926;28;20636;-15
2022/09/09 02:27:03;;;;;;;2.15;0.70;;;;;;;;;;5090289;28;21052;-15
2022/09/09 02:29:31;;;;;;;1.40;0.50;;;;;;;;;;5074380;28;20222;-15
2022/09/09 02:31:59;;;;;;;1.65;0.60;;;;;;;;;;5092665;28;20237;-15
2022/09/09 02:34:27;;;;;;;1.85;0.45;;;;;;;;;;5094204;28;20946;-15
2022/09/09 02:36:56;;;;;;;3.38;0.80;;;;;;;;;;5079855;28;20887;-15
2022/09/09 02:39:23;;;;;;;2.75;0.50;;;;;;;;;;5084819;28;20221;-15
2022/09/09 02:41:50;;;;;;;2.45;0.60;;;;;;;;;;5073430;28;20242;-15
2022/09/09 02:44:18;;;;;;;0.77;0.40;;;;;;;;;;5073419;28;20233;-15
2022/09/09 02:46:54;;;;;;;2.90;0.63;;;;;;;;;;5087959;28;20282;-15
2022/09/09 02:49:24;;;;;;;1.48;0.60;;;;;;;;;;5092741;28;20236;-15
2022/09/09 02:51:52;;;;;;;0.95;0.50;;;;;;;;;;5092759;28;20225;-15
2022/09/09 02:54:23;;;;;;;3.53;0.95;;;;;;;;;;5077668;28;20710;-15
2022/09/09 02:56:51;;;;;;;1.42;0.57;;;;;;;;;;5085651;28;20922;-15
2022/09/09 02:59:18;;;;;;;1.50;0.85;;;;;;;;;;5093979;28;20290;-15
2022/09/09 03:01:46;;;;;;;2.22;0.80;;;;;;;;;;5093505;28;20276;-15
2022/09/09 03:04:14;;;;;;;1.15;0.60;;;;;;;;;;5093992;28;21043;-15
2022/09/09 03:06:41;;;;;;;1.70;0.90;;;;;;;;;;5093953;28;20283;-15
2022/09/09 03:09:10;;;;;;;2.25;0.70;;;;;;;;;;5092926;28;20229;-15
2022/09/09 03:11:39;;;;;;;2.42;0.75;;;;;;;;;;5072953;28;20275;-15
2022/09/09 03:14:06;;;;;;;1.10;0.52;;;;;;;;;;5072067;28;20633;-15
2022/09/09 03:16:34;;;;;;;1.17;0.68;;;;;;;;;;5076404;28;20236;-15
2022/09/09 03:19:01;;;;;;;2.38;0.60;;;;;;;;;;5078884;28;20279;-15
2022/09/09 03:21:28;;;;;;;2.45;0.77;;;;;;;;;;5092066;28;20249;-15
2022/09/09 03:23:57;;;;;;;1.50;0.80;;;;;;;;;;5093160;28;20757;-15
2022/09/09 03:26:24;;;;;;;1.27;0.50;;;;;;;;;;5090419;28;20229;-15
2022/09/09 03:28:53;;;;;;;0.82;0.60;;;;;;;;;;5072692;28;20229;-15
2022/09/09 03:31:20;;;;;;;1.85;0.70;;;;;;;;;;5087076;28;20271;-15
2022/09/09 03:33:48;;;;;;;2.88;0.50;;;;;;;;;;5093109;28;20239;-15
2022/09/09 03:36:15;;;;;;;1.20;0.50;;;;;;;;;;5088524;28;20334;-15
2022/09/09 03:38:42;;;;;;;0.73;0.50;;;;;;;;;;5092705;28;20270;-15
2022/09/09 03:41:09;;;;;;;1.05;0.50;;;;;;;;;;5092787;28;20241;-15
2022/09/09 03:43:37;;;;;;;1.45;0.65;;;;;;;;;;5079632;28;20229;-15
2022/09/09 03:46:06;;;;;;;3.03;0.70;;;;;;;;;;5080408;28;20233;-15
2022/09/09 03:48:34;;;;;;;1.48;0.75;;;;;;;;;;5092722;28;20275;-15
2022/09/09 03:51:02;;;;;;;2.28;0.70;;;;;;;;;;5083586;28;20218;-15
2022/09/09 03:53:30;;;;;;;1.25;0.60;;;;;;;;;;5077754;28;20786;-15
2022/09/09 03:55:59;;;;;;;2.92;0.70;;;;;;;;;;5113004;28;20278;-15
2022/09/09 03:58:27;;;;;;;1.00;0.52;;;;;;;;;;5106335;28;20225;-15
2022/09/09 04:00:55;;;;;;;0.77;0.57;;;;;;;;;;5085268;28;20272;-15
2022/09/09 04:03:24;;;;;;;1.75;0.60;;;;;;;;;;5072174;28;20236;-15
2022/09/09 04:05:55;;;;;;;2.60;0.80;;;;;;;;;;5083266;28;20226;-15
2022/09/09 04:08:24;;;;;;;3.75;0.40;;;;;;;;;;5072311;28;20233;-15
2022/09/09 04:10:51;;;;;;;1.95;0.60;;;;;;;;;;5071942;28;20225;-15
2022/09/09 04:13:19;;;;;;;2.10;0.77;;;;;;;;;;5072394;28;20296;-15
2022/09/09 04:15:50;;;;;;;1.17;0.70;;;;;;;;;;5077181;28;20249;-15
2022/09/09 04:18:19;;;;;;;1.73;0.75;;;;;;;;;;5092199;28;20383;-15
2022/09/09 04:20:48;;;;;;;1.35;0.70;;;;;;;;;;5091874;28;21015;-15
2022/09/09 04:23:15;;;;;;;1.70;0.90;;;;;;;;;;5091315;28;20905;-15
2022/09/09 04:25:46;;;;;;;2.75;0.80;;;;;;;;;;5090974;28;20696;-15
2022/09/09 04:28:14;;;;;;;1.77;0.70;;;;;;;;;;5091221;28;20330;-15
2022/09/09 04:30:41;;;;;;;6.28;1.05;;;;;;;;;;5091355;28;20712;-15
2022/09/09 04:33:09;;;;;;;2.75;1.00;;;;;;;;;;5092037;28;20252;-15
2022/09/09 04:35:37;;;;;;;1.70;0.70;;;;;;;;;;5092154;28;20229;-15
2022/09/09 04:38:07;;;;;;;1.35;0.60;;;;;;;;;;5090314;28;20282;-15
2022/09/09 04:40:34;;;;;;;1.65;0.50;;;;;;;;;;5091695;28;20275;-15
2022/09/09 04:43:02;;;;;;;2.67;0.60;;;;;;;;;;5091644;28;20236;-15
2022/09/09 04:45:30;;;;;;;2.08;0.63;;;;;;;;;;5087275;28;20241;-15
2022/09/09 04:47:57;;;;;;;1.52;0.80;;;;;;;;;;5091726;28;20264;-15
2022/09/09 04:50:25;;;;;;;2.35;1.02;;;;;;;;;;5091052;28;20286;-15
2022/09/09 04:52:52;;;;;;;2.13;0.60;;;;;;;;;;5090945;28;20225;-15
2022/09/09 04:55:21;;;;;;;3.22;0.77;;;;;;;;;;5091032;28;20233;-15
2022/09/09 04:57:48;;;;;;;3.13;0.80;;;;;;;;;;5091922;28;20237;-15
2022/09/09 05:00:16;;;;;;;6.80;0.88;;;;;;;;;;5089176;28;20233;-15
2022/09/09 05:02:44;;;;;;;5.88;1.00;;;;;;;;;;5071182;28;20237;-15
2022/09/09 05:05:12;;;;;;;2.95;0.80;;;;;;;;;;5071277;28;20228;-15
2022/09/09 05:07:39;;;;;;;2.00;0.80;;;;;;;;;;5071124;28;20415;-15
2022/09/09 05:10:07;;;;;;;2.53;0.85;;;;;;;;;;5072223;28;20229;-15
2022/09/09 05:12:36;;;;;;;4.95;0.80;;;;;;;;;;5090078;28;20339;-15
2022/09/09 05:15:03;;;;;;;5.38;0.70;;;;;;;;;;5091462;28;20390;-15
2022/09/09 05:17:30;;;;;;;2.88;0.73;;;;;;;;;;5091345;28;20270;-15
2022/09/09 05:19:58;;;;;;;4.25;0.77;;;;;;;;;;5091034;28;20228;-15
2022/09/09 05:22:26;;;;;;;2.78;0.90;;;;;;;;;;5089726;28;20251;-15
2022/09/09 05:24:53;;;;;;;1.90;0.52;;;;;;;;;;5091518;28;20274;-15
2022/09/09 05:27:20;;;;;;;6.65;0.80;;;;;;;;;;5075345;28;20283;-15
2022/09/09 05:29:49;;;;;;;4.20;0.90;;;;;;;;;;5071025;28;20645;-15
2022/09/09 05:32:16;;;;;;;1.55;0.60;;;;;;;;;;5088183;28;20298;-15
2022/09/09 05:34:44;;;;;;;7.45;1.02;;;;;;;;;;5090785;28;20236;-15
2022/09/09 05:37:11;;;;;;;1.85;0.80;;;;;;;;;;5091083;28;20229;-15
2022/09/09 05:39:38;;;;;;;1.35;0.70;;;;;;;;;;5091523;28;20216;-15
2022/09/09 05:42:06;;;;;;;3.67;0.60;;;;;;;;;;5090736;28;20237;-15
2022/09/09 05:44:33;;;;;;;1.70;0.77;;;;;;;;;;5090428;28;20695;-15
2022/09/09 05:47:02;;;;;;;1.30;0.50;;;;;;;;;;5090954;28;20232;-15
2022/09/09 05:49:29;;;;;;;3.72;0.70;;;;;;;;;;5090253;28;20251;-15
2022/09/09 05:51:57;;;;;;;2.55;0.70;;;;;;;;;;5091081;28;20234;-15
2022/09/09 05:54:24;;;;;;;2.15;0.65;;;;;;;;;;5090342;28;20224;-15
2022/09/09 05:56:53;;;;;;;0.82;0.50;;;;;;;;;;5090024;28;21012;-15
2022/09/09 05:59:21;;;;;;;3.13;0.90;;;;;;;;;;5090735;28;20556;-15
2022/09/09 06:01:48;;;;;;;1.20;0.70;;;;;;;;;;5090961;28;20556;-15
2022/09/09 06:04:17;;;;;;;1.70;0.80;;;;;;;;;;5090547;28;20236;-15
2022/09/09 06:06:45;;;;;;;4.68;0.93;;;;;;;;;;5089206;28;21107;-15
2022/09/09 06:09:13;;;;;;;2.45;0.73;;;;;;;;;;5086172;28;20233;-15
2022/09/09 06:11:40;;;;;;;2.40;0.60;;;;;;;;;;5076138;28;20239;-15
2022/09/09 06:14:08;;;;;;;6.60;0.80;;;;;;;;;;5080371;28;20217;-15
2022/09/09 06:16:37;;;;;;;3.58;0.90;;;;;;;;;;5081950;28;20325;-15
2022/09/09 06:19:04;;;;;;;2.67;0.88;;;;;;;;;;5078792;28;20226;-15
2022/09/09 06:21:34;;;;;;;4.55;0.90;;;;;;;;;;5080635;28;20249;-15
2022/09/09 06:24:01;;;;;;;3.10;0.90;;;;;;;;;;5081661;28;20300;-15
2022/09/09 06:26:30;;;;;;;9.68;0.80;;;;;;;;;;5081352;28;20294;-15
2022/09/09 06:28:58;;;;;;;3.22;0.90;;;;;;;;;;5083297;28;20236;-15
2022/09/09 06:31:25;;;;;;;2.47;0.80;;;;;;;;;;5076639;28;20589;-15
2022/09/09 06:33:56;;;;;;;2.95;0.65;;;;;;;;;;5079742;28;20238;-15
2022/09/09 06:36:24;;;;;;;12.23;1.27;;;;;;;;;;5078795;28;20233;-15
2022/09/09 06:38:53;;;;;;;2.78;0.82;;;;;;;;;;5078939;28;20308;-15
2022/09/09 06:41:21;;;;;;;4.07;1.35;;;;;;;;;;5081878;28;20217;-15
2022/09/09 06:43:48;;;;;;;11.93;1.35;;;;;;;;;;5080193;28;20323;-15
2022/09/09 06:46:16;;;;;;;8.32;1.17;;;;;;;;;;5078929;28;20280;-15
2022/09/09 06:48:44;;;;;;;7.60;1.30;;;;;;;;;;5078686;28;20229;-15
2022/09/09 06:51:12;;;;;;;3.35;1.00;;;;;;;;;;5083109;28;20268;-15
2022/09/09 06:53:40;;;;;;;2.47;0.85;;;;;;;;;;5081552;28;20272;-15
2022/09/09 06:56:19;;;;;;;2.45;0.80;;;;;;;;;;5083673;28;20320;-15
2022/09/09 06:58:48;;;;;;;2.85;1.15;;;;;;;;;;5082520;28;20229;-15
2022/09/09 07:01:16;;;;;;;6.43;1.50;;;;;;;;;;5082798;28;20233;-15
2022/09/09 07:03:43;;;;;;;2.53;1.10;;;;;;;;;;5085821;28;20251;-15
2022/09/09 07:06:14;;;;;;;4.32;1.17;;;;;;;;;;5083018;28;20287;-15
2022/09/09 07:08:42;;;;;;;6.03;1.42;;;;;;;;;;5079205;28;20315;-15
2022/09/09 07:11:09;;;;;;;5.30;1.42;;;;;;;;;;5080929;28;20229;-15
2022/09/09 07:13:40;;;;;;;2.65;1.27;;;;;;;;;;5081586;28;20241;-15
2022/09/09 07:16:08;;;;;;;7.32;1.08;;;;;;;;;;5084887;28;20291;-15
2022/09/09 07:18:35;;;;;;;4.88;1.15;;;;;;;;;;5081010;28;20333;-15
2022/09/09 07:21:03;;;;;;;6.88;1.50;;;;;;;;;;5082290;28;20286;-15
2022/09/09 07:23:30;;;;;;;7.03;1.73;;;;;;;;;;5083732;28;20302;-15
2022/09/09 07:26:02;;;;;;;12.15;1.33;;;;;;;;;;5085216;28;20572;-15
2022/09/09 07:28:30;;;;;;;6.40;1.10;;;;;;;;;;5083809;28;20237;-15
2022/09/09 07:31:01;;;;;;;8.00;1.65;;;;;;;;;;5083685;28;20409;-15
2022/09/09 07:33:30;;;;;;;7.53;1.00;;;;;;;;;;5082832;28;20363;-15
2022/09/09 07:36:02;;;;;;;11.25;1.23;;;;;;;;;;5082847;28;20820;-15
2022/09/09 07:38:30;;;;;;;6.00;1.23;;;;;;;;;;5081976;28;20229;-15
2022/09/09 07:41:03;;;;;;;4.18;1.02;;;;;;;;;;5083195;28;20289;-15
2022/09/09 07:43:30;;;;;;;3.03;1.00;;;;;;;;;;5081976;28;20297;-15
2022/09/09 07:46:00;;;;;;;4.53;1.05;;;;;;;;;;5079072;28;20315;-15
2022/09/09 07:48:27;;;;;;;5.63;1.77;;;;;;;;;;5082518;28;20241;-15
2022/09/09 07:51:03;;;;;;;7.97;1.25;;;;;;;;;;5081906;28;20415;-15
2022/09/09 07:53:30;;;;;;;7.43;1.77;;;;;;;;;;5081491;28;20715;-15
2022/09/09 07:56:02;;;;;;;3.83;1.10;;;;;;;;;;5081964;28;20287;-15
2022/09/09 07:58:30;;;;;;;14.27;1.70;;;;;;;;;;5081701;28;20282;-15
2022/09/09 08:01:09;;;;;;;14.73;2.17;;;;;;;;;;5081392;28;20309;-15
2022/09/09 08:03:36;;;;;;;6.35;1.52;;;;;;;;;;5071813;28;20774;-15
2022/09/09 08:06:04;;;;;;;10.70;1.55;;;;;;;;;;5082723;28;20256;-15
2022/09/09 08:08:31;;;;;;;9.38;1.40;;;;;;;;;;5090490;28;20283;-15
2022/09/09 08:11:02;;;;;;;10.32;1.60;;;;;;;;;;5091308;28;21014;-15
2022/09/09 08:13:31;;;;;;;9.07;2.03;;;;;;;;;;5081724;28;20275;-15
2022/09/09 08:16:04;;;;;;;10.90;1.60;;;;;;;;;;5074243;28;20292;-15
2022/09/09 08:18:33;;;;;;;8.80;1.58;;;;;;;;;;5080861;28;20226;-15
2022/09/09 08:21:05;;;;;;;8.75;1.63;;;;;;;;;;5077344;28;20247;-15
2022/09/09 08:23:33;;;;;;;7.80;1.60;;;;;;;;;;5071246;28;20320;-15
2022/09/09 08:26:04;;;;;;;9.23;1.73;;;;;;;;;;5071567;28;20303;-15
2022/09/09 08:28:32;;;;;;;10.38;2.25;;;;;;;;;;5084160;28;20254;-15
2022/09/09 08:31:05;;;;;;;26.17;1.83;;;;;;;;;;5082438;28;20229;-15
2022/09/09 08:33:34;;;;;;;7.57;1.85;;;;;;;;;;5080294;28;20303;-15
2022/09/09 08:36:01;;;;;;;13.40;1.65;;;;;;;;;;5080917;28;20726;-15
2022/09/09 08:38:29;;;;;;;7.85;2.08;;;;;;;;;;5080076;28;20214;-15
2022/09/09 08:40:59;;;;;;;5.80;2.17;;;;;;;;;;5081950;28;20233;-15
2022/09/09 08:43:27;;;;;;;4.45;1.60;;;;;;;;;;5079201;28;20241;-15
2022/09/09 08:45:56;;;;;;;6.72;1.73;;;;;;;;;;5078786;28;20231;-15
2022/09/09 08:48:30;;;;;;;8.02;1.67;;;;;;;;;;5081590;28;20312;-15
2022/09/09 08:51:01;;;;;;;6.38;1.67;;;;;;;;;;5080834;28;20286;-15
2022/09/09 08:53:30;;;;;;;7.97;1.67;;;;;;;;;;5079165;28;20225;-15
2022/09/09 08:55:59;;;;;;;6.30;1.77;;;;;;;;;;5078796;28;20233;-15
2022/09/09 08:58:29;;;;;;;5.32;1.60;;;;;;;;;;5081778;28;20240;-15
2022/09/09 09:01:00;;;;;;;9.43;1.60;;;;;;;;;;5079229;28;20220;-15
2022/09/09 09:03:29;;;;;;;5.72;1.70;;;;;;;;;;5080989;28;20233;-15
2022/09/09 09:06:00;;;;;;;7.30;1.38;;;;;;;;;;5080055;28;20228;-15
2022/09/09 09:08:29;;;;;;;6.68;1.70;;;;;;;;;;5081471;28;21127;-15
2022/09/09 09:10:58;;;;;;;7.00;1.48;;;;;;;;;;5080960;28;20943;-15
2022/09/09 09:13:26;;;;;;;7.90;1.80;;;;;;;;;;5080253;28;20221;-15
2022/09/09 09:15:54;;;;;;;4.95;1.60;;;;;;;;;;5078404;28;20269;-15
2022/09/09 09:18:22;;;;;;;2.65;1.17;;;;;;;;;;5081275;28;20236;-15
2022/09/09 09:20:52;;;;;;;5.35;1.77;;;;;;;;;;5080212;28;20229;-15
2022/09/09 09:23:22;;;;;;;5.93;1.65;;;;;;;;;;5080204;28;20284;-15
2022/09/09 09:25:51;;;;;;;11.65;2.38;;;;;;;;;;5081382;28;20584;-15
2022/09/09 09:28:19;;;;;;;5.40;1.42;;;;;;;;;;5079711;28;20262;-15
2022/09/09 09:30:47;;;;;;;6.97;1.65;;;;;;;;;;5078716;28;20286;-15
2022/09/09 09:33:15;;;;;;;7.88;1.77;;;;;;;;;;5079950;28;20283;-15
2022/09/09 09:35:43;;;;;;;6.00;1.92;;;;;;;;;;5080194;28;20286;-15
2022/09/09 09:38:13;;;;;;;10.07;1.98;;;;;;;;;;5079436;28;20230;-15
2022/09/09 09:41:02;;;;;;;6.70;1.52;;;;;;;;;;5080165;28;20320;-15
2022/09/09 09:43:30;;;;;;;5.97;1.70;;;;;;;;;;5080130;28;20228;-15
2022/09/09 09:45:58;;;;;;;7.10;1.60;;;;;;;;;;5078851;28;20233;-15
2022/09/09 09:48:46;;;;;;;5.22;1.70;;;;;;;;;;5081137;28;20221;-15
2022/09/09 09:51:15;;;;;;;6.13;1.25;;;;;;;;;;5078270;28;20820;-15
2022/09/09 09:53:43;;;;;;;6.28;1.58;;;;;;;;;;5081092;28;20877;-15
2022/09/09 09:56:12;;;;;;;5.78;1.23;;;;;;;;;;5080013;28;20742;-15
2022/09/09 09:58:49;;;;;;;7.50;1.90;;;;;;;;;;5080052;28;20269;-15
2022/09/09 10:01:19;;;;;;;9.15;1.50;;;;;;;;;;5079560;28;20224;-15
2022/09/09 10:03:50;;;;;;;6.25;1.50;;;;;;;;;;5079240;28;20328;-15
2022/09/09 10:06:18;;;;;;;5.00;1.48;;;;;;;;;;5079607;28;20277;-15
2022/09/09 10:08:46;;;;;;;20.27;2.00;;;;;;;;;;5081706;28;20237;-15
2022/09/09 10:11:19;;;;;;;24.13;1.77;;;;;;;;;;5080065;28;20228;-15
2022/09/09 10:13:49;;;;;;;13.50;1.35;;;;;;;;;;5081435;28;21075;-15
2022/09/09 10:16:20;;;;;;;8.43;1.60;;;;;;;;;;5079882;28;20287;-15
2022/09/09 10:18:51;;;;;;;7.50;1.73;;;;;;;;;;5082910;28;20881;-15
2022/09/09 10:21:23;;;;;;;5.45;1.42;;;;;;;;;;5079799;28;20241;-15
2022/09/09 10:23:55;;;;;;;8.50;1.60;;;;;;;;;;5080432;28;20236;-15
2022/09/09 10:26:29;;;;;;;7.72;1.75;;;;;;;;;;5081784;28;20241;-15
2022/09/09 10:29:00;;;;;;;6.45;1.27;;;;;;;;;;5083198;28;20232;-15
2022/09/09 10:31:29;;;;;;;7.22;1.60;;;;;;;;;;5085399;28;20233;-15
2022/09/09 10:33:58;;;;;;;6.45;1.48;;;;;;;;;;5082093;28;21055;-15
2022/09/09 10:36:26;;;;;;;6.40;1.48;;;;;;;;;;5081606;28;20237;-15
2022/09/09 10:38:53;;;;;;;5.05;1.33;;;;;;;;;;5083442;28;20235;-15
2022/09/09 10:41:21;;;;;;;5.30;1.30;;;;;;;;;;5085224;28;20287;-15
2022/09/09 10:44:06;;;;;;;5.35;1.30;;;;;;;;;;5081095;28;20232;-15
2022/09/09 10:46:38;;;;;;;8.55;1.25;;;;;;;;;;5079876;28;20241;-15
2022/09/09 10:49:09;;;;;;;12.13;1.70;;;;;;;;;;5082235;28;20308;-15
2022/09/09 10:51:37;;;;;;;5.47;1.40;;;;;;;;;;5083668;28;20232;-15
2022/09/09 10:54:08;;;;;;;5.10;1.30;;;;;;;;;;5081491;28;20234;-15
2022/09/09 10:56:36;;;;;;;10.38;1.67;;;;;;;;;;5082381;28;20298;-15
2022/09/09 10:59:04;;;;;;;8.65;1.40;;;;;;;;;;5083373;28;20291;-15
2022/09/09 11:01:32;;;;;;;5.53;1.13;;;;;;;;;;5080659;28;20229;-15
2022/09/09 11:04:01;;;;;;;7.32;1.15;;;;;;;;;;5083839;28;20236;-15
2022/09/09 11:06:29;;;;;;;6.18;1.23;;;;;;;;;;5081392;28;20245;-15
2022/09/09 11:08:58;;;;;;;7.07;1.48;;;;;;;;;;5082218;28;20232;-15
2022/09/09 11:11:26;;;;;;;3.38;1.25;;;;;;;;;;5081974;28;20233;-15
2022/09/09 11:13:55;;;;;;;4.93;1.13;;;;;;;;;;5081615;28;20294;-15
2022/09/09 11:16:25;;;;;;;7.57;1.02;;;;;;;;;;5083471;28;20240;-15
2022/09/09 11:18:54;;;;;;;3.80;1.20;;;;;;;;;;5081703;28;20985;-15
2022/09/09 11:21:23;;;;;;;12.00;1.30;;;;;;;;;;5080702;28;20330;-15
2022/09/09 11:23:52;;;;;;;6.97;1.10;;;;;;;;;;5080883;28;20246;-15
2022/09/09 11:26:22;;;;;;;6.25;1.20;;;;;;;;;;5083901;28;20240;-15
2022/09/09 11:28:53;;;;;;;7.90;1.30;;;;;;;;;;5082360;28;20228;-15
2022/09/09 11:31:30;;;;;;;3.60;1.02;;;;;;;;;;5082562;28;20233;-15
2022/09/09 11:33:59;;;;;;;4.78;1.45;;;;;;;;;;5082924;28;20277;-15
2022/09/09 11:36:35;;;;;;;4.45;1.10;;;;;;;;;;5079661;28;20233;-15
2022/09/09 11:39:03;;;;;;;8.35;1.20;;;;;;;;;;5080890;28;20271;-15
2022/09/09 11:41:34;;;;;;;5.72;1.27;;;;;;;;;;5080921;28;20223;-15
2022/09/09 11:44:06;;;;;;;4.72;1.23;;;;;;;;;;5080941;28;20237;-15
2022/09/09 11:46:35;;;;;;;5.00;1.52;;;;;;;;;;5080373;28;20310;-15
2022/09/09 11:49:03;;;;;;;2.65;1.15;;;;;;;;;;5080691;28;20227;-15
2022/09/09 11:51:30;;;;;;;4.03;1.40;;;;;;;;;;5080636;28;20676;-15
2022/09/09 11:54:01;;;;;;;3.47;1.42;;;;;;;;;;5081539;28;20278;-15
2022/09/09 11:56:30;;;;;;;6.40;1.15;;;;;;;;;;5082755;28;20277;-15
2022/09/09 11:58:59;;;;;;;6.53;1.40;;;;;;;;;;5082863;28;20985;-15
2022/09/09 12:01:28;;;;;;;3.08;1.02;;;;;;;;;;5080283;28;20221;-15
2022/09/09 12:03:56;;;;;;;4.97;1.17;;;;;;;;;;5079925;28;20754;-15
2022/09/09 12:06:26;;;;;;;4.47;1.33;;;;;;;;;;5082174;28;20336;-15
2022/09/09 12:08:54;;;;;;;3.88;1.33;;;;;;;;;;5080378;28;20230;-15
2022/09/09 12:11:27;;;;;;;8.25;2.05;;;;;;;;;;5080657;28;20236;-15
2022/09/09 12:13:55;;;;;;;3.72;0.95;;;;;;;;;;5082349;28;20769;-15
2022/09/09 12:16:29;;;;;;;7.35;1.30;;;;;;;;;;5081469;28;20225;-15
2022/09/09 12:19:03;;;;;;;3.90;1.10;;;;;;;;;;5081348;28;20907;-15
2022/09/09 12:21:36;;;;;;;5.70;1.10;;;;;;;;;;5081642;28;20625;-15
2022/09/09 12:24:03;;;;;;;4.20;1.27;;;;;;;;;;5082050;28;20295;-15
2022/09/09 12:26:33;;;;;;;9.20;1.33;;;;;;;;;;5080399;28;20232;-16
2022/09/09 12:29:04;;;;;;;10.43;1.38;;;;;;;;;;5078107;28;20230;-16
2022/09/09 12:31:34;;;;;;;10.57;1.40;;;;;;;;;;5073230;28;20243;-17
2022/09/09 12:34:04;;;;;;;4.60;1.20;;;;;;;;;;5072044;28;20229;-16
2022/09/09 12:36:31;;;;;;;3.67;1.10;;;;;;;;;;5074095;28;20237;-16
2022/09/09 12:38:59;;;;;;;3.45;1.20;;;;;;;;;;5069863;28;21129;-16
2022/09/09 12:41:28;;;;;;;4.93;1.10;;;;;;;;;;5075325;28;20634;-16
2022/09/09 12:44:06;;;;;;;5.38;1.13;;;;;;;;;;5074284;28;20275;-16
2022/09/09 12:46:36;;;;;;;8.65;1.08;;;;;;;;;;5078151;28;20708;-16
2022/09/09 12:49:03;;;;;;;3.13;1.02;;;;;;;;;;5070107;28;20786;-16
2022/09/09 12:51:31;;;;;;;7.50;0.80;;;;;;;;;;5075511;28;20295;-16
2022/09/09 12:53:58;;;;;;;8.23;1.52;;;;;;;;;;5073439;28;20243;-16
2022/09/09 12:56:27;;;;;;;8.63;1.48;;;;;;;;;;5072184;28;20759;-16
2022/09/09 12:58:55;;;;;;;4.40;1.13;;;;;;;;;;5073623;28;20237;-16
2022/09/09 13:01:24;;;;;;;5.75;1.20;;;;;;;;;;5072162;28;21061;-16
2022/09/09 13:03:52;;;;;;;6.90;1.27;;;;;;;;;;5068898;28;20233;-16
2022/09/09 13:06:22;;;;;;;7.15;1.17;;;;;;;;;;5076001;28;20636;-16
2022/09/09 13:08:55;;;;;;;4.85;0.90;;;;;;;;;;5077207;28;20228;-16
2022/09/09 13:11:23;;;;;;;8.25;1.20;;;;;;;;;;5073081;28;20712;-14
2022/09/09 13:13:51;;;;;;;3.92;1.20;;;;;;;;;;5069547;28;20229;-16
2022/09/09 13:16:19;;;;;;;3.83;0.70;;;;;;;;;;5079452;28;20286;-15
2022/09/09 13:18:49;;;;;;;3.63;0.75;;;;;;;;;;5073509;28;20236;-16
2022/09/09 13:21:16;;;;;;;5.18;0.80;;;;;;;;;;5069379;28;20229;-16
2022/09/09 13:23:48;;;;;;;5.75;0.90;;;;;;;;;;5077659;28;20279;-16
2022/09/09 13:26:22;;;;;;;2.78;0.80;;;;;;;;;;5075745;28;20238;-14
2022/09/09 13:28:50;;;;;;;3.85;1.17;;;;;;;;;;5076348;28;20585;-16
2022/09/09 13:31:21;;;;;;;9.77;1.13;;;;;;;;;;5078922;28;20243;-14
2022/09/09 13:33:49;;;;;;;5.45;1.23;;;;;;;;;;5078145;28;21868;-16
2022/09/09 13:36:17;;;;;;;4.88;1.17;;;;;;;;;;5081013;28;20237;-13
2022/09/09 13:38:54;;;;;;;4.18;0.68;;;;;;;;;;5083170;28;20228;-14
2022/09/09 13:41:23;;;;;;;3.63;0.90;;;;;;;;;;5084107;28;20730;-14
2022/09/09 13:43:50;;;;;;;2.65;1.00;;;;;;;;;;5090780;28;20220;-14
2022/09/09 13:46:27;;;;;;;2.97;1.00;;;;;;;;;;5088781;28;20221;-13
2022/09/09 13:48:56;;;;;;;3.10;1.10;;;;;;;;;;5090374;28;20668;-13
2022/09/09 13:51:27;;;;;;;2.95;1.10;;;;;;;;;;5089905;28;20229;-14
2022/09/09 13:53:54;;;;;;;3.47;1.15;;;;;;;;;;5078812;28;20279;-14
2022/09/09 13:56:22;;;;;;;2.35;0.95;;;;;;;;;;5070994;28;20271;-14
2022/09/09 13:58:49;;;;;;;2.72;1.10;;;;;;;;;;5082412;28;20756;-14
2022/09/09 14:01:16;;;;;;;4.03;1.00;;;;;;;;;;5103776;28;20233;-14
2022/09/09 14:03:44;;;;;;;2.78;0.90;;;;;;;;;;5093560;28;20228;-14
2022/09/09 14:06:13;;;;;;;3.65;0.95;;;;;;;;;;5094310;28;20232;-14
2022/09/09 14:08:40;;;;;;;2.25;0.88;;;;;;;;;;5094166;28;20244;-13
2022/09/09 14:11:08;;;;;;;2.35;0.88;;;;;;;;;;5092058;28;20286;-14
2022/09/09 14:13:37;;;;;;;3.95;1.30;;;;;;;;;;5094267;28;20283;-14
2022/09/09 14:16:04;;;;;;;2.85;1.25;;;;;;;;;;5093983;28;20790;-14
2022/09/09 14:18:32;;;;;;;3.03;0.90;;;;;;;;;;5094005;28;20331;-14
2022/09/09 14:20:59;;;;;;;3.45;1.17;;;;;;;;;;5080929;28;20229;-14
2022/09/09 14:23:29;;;;;;;4.45;1.25;;;;;;;;;;5093248;28;20319;-14
2022/09/09 14:25:56;;;;;;;2.75;1.23;;;;;;;;;;5093997;28;20290;-14
2022/09/09 14:28:24;;;;;;;2.60;0.82;;;;;;;;;;5077847;28;20309;-14
2022/09/09 14:31:13;;;;;;;2.70;0.95;;;;;;;;;;5082310;28;20332;-14
2022/09/09 14:33:40;;;;;;;3.83;1.05;;;;;;;;;;5093503;28;20331;-14
2022/09/09 14:36:08;;;;;;;8.50;1.10;;;;;;;;;;5093658;28;20881;-14
2022/09/09 14:38:39;;;;;;;4.25;1.15;;;;;;;;;;5094340;28;20294;-14
2022/09/09 14:41:06;;;;;;;4.40;1.20;;;;;;;;;;5090624;28;21085;-16
2022/09/09 14:43:34;;;;;;;8.45;1.10;;;;;;;;;;5079070;28;20291;-15
2022/09/09 14:46:05;;;;;;;2.78;1.17;;;;;;;;;;5080531;28;20272;-16
2022/09/09 14:48:33;;;;;;;3.72;1.08;;;;;;;;;;5077428;28;20236;-16
2022/09/09 14:51:05;;;;;;;2.80;1.10;;;;;;;;;;5080727;28;20259;-16
2022/09/09 14:53:32;;;;;;;2.97;1.13;;;;;;;;;;5075851;28;20299;-16